createdAt,value
2023-03-26T00:01:19.792Z,11.80
2023-03-26T00:03:46.248Z,11.43
2023-03-26T00:06:15.289Z,15.13
2023-03-26T00:08:43.384Z,15.63
2023-03-26T00:11:11.470Z,13.95
2023-03-26T00:13:39.627Z,17.75
2023-03-26T00:16:07.754Z,21.33
2023-03-26T00:18:34.246Z,14.75
2023-03-26T00:21:05.674Z,19.50
2023-03-26T00:23:33.894Z,15.68
2023-03-26T00:26:00.844Z,17.27
2023-03-26T00:28:27.607Z,14.35
2023-03-26T00:30:59.766Z,18.95
2023-03-26T00:33:26.372Z,16.30
2023-03-26T00:35:54.881Z,20.52
2023-03-26T00:38:23.031Z,19.42
2023-03-26T00:40:50.501Z,17.25
2023-03-26T00:43:21.309Z,19.83
2023-03-26T00:45:52.419Z,18.27
2023-03-26T00:48:20.830Z,16.48
2023-03-26T00:50:48.873Z,24.67
2023-03-26T00:53:17.167Z,20.08
2023-03-26T00:55:45.689Z,18.63
2023-03-26T00:58:13.274Z,16.00
2023-03-26T01:00:47.524Z,17.20
2023-03-26T01:03:27.596Z,19.25
2023-03-26T01:05:59.318Z,17.95
2023-03-26T01:08:31.256Z,14.32
2023-03-26T01:11:02.719Z,18.07
2023-03-26T01:13:33.248Z,17.00
2023-03-26T01:16:00.848Z,16.55
2023-03-26T01:18:32.177Z,19.67
2023-03-26T01:20:58.693Z,17.50
2023-03-26T01:23:37.392Z,19.73
2023-03-26T01:26:31.637Z,18.02
2023-03-26T01:29:02.359Z,19.90
2023-03-26T01:31:39.443Z,20.83
2023-03-26T01:34:08.648Z,20.17
2023-03-26T01:36:50.378Z,21.27
2023-03-26T01:39:29.278Z,17.30
2023-03-26T01:42:02.641Z,19.27
2023-03-26T01:44:43.638Z,13.50
2023-03-26T01:47:12.390Z,13.30
2023-03-26T01:49:38.947Z,16.13
2023-03-26T01:52:14.983Z,17.58
2023-03-26T01:54:41.601Z,23.33
2023-03-26T01:57:16.844Z,19.17
2023-03-26T02:00:04.827Z,23.70
2023-03-26T02:02:51.614Z,21.13
2023-03-26T02:05:57.173Z,22.33
2023-03-26T02:08:38.700Z,17.50
2023-03-26T02:11:09.831Z,19.42
2023-03-26T02:13:38.673Z,15.98
2023-03-26T02:16:09.589Z,17.17
2023-03-26T02:18:36.292Z,20.63
2023-03-26T02:21:24.442Z,16.02
2023-03-26T02:23:54.085Z,17.65
2023-03-26T02:26:20.566Z,16.48
2023-03-26T02:28:47.105Z,19.27
2023-03-26T02:31:14.018Z,15.93
2023-03-26T02:33:40.548Z,20.20
2023-03-26T02:36:07.803Z,15.95
2023-03-26T02:38:34.909Z,16.70
2023-03-26T02:41:02.639Z,17.13
2023-03-26T02:43:29.214Z,14.25
2023-03-26T02:45:56.147Z,15.65
2023-03-26T02:48:23.133Z,17.00
2023-03-26T02:50:50.205Z,17.63
2023-03-26T02:53:16.942Z,20.03
2023-03-26T02:55:43.453Z,12.23
2023-03-26T02:58:10.430Z,11.80
2023-03-26T03:00:36.905Z,11.93
2023-03-26T03:03:04.059Z,17.92
2023-03-26T03:05:33.730Z,17.33
2023-03-26T03:08:00.414Z,17.10
2023-03-26T03:10:27.676Z,17.95
2023-03-26T03:12:54.784Z,17.38
2023-03-26T03:15:21.396Z,17.58
2023-03-26T03:17:48.408Z,18.53
2023-03-26T03:20:15.064Z,18.02
2023-03-26T03:22:41.555Z,19.20
2023-03-26T03:25:09.321Z,15.93
2023-03-26T03:27:36.041Z,20.15
2023-03-26T03:30:02.518Z,20.07
2023-03-26T03:32:29.058Z,19.88
2023-03-26T03:34:55.686Z,17.10
2023-03-26T03:37:22.201Z,20.33
2023-03-26T03:39:48.772Z,23.80
2023-03-26T03:42:15.300Z,21.43
2023-03-26T03:44:41.762Z,13.45
2023-03-26T03:47:08.323Z,16.17
2023-03-26T03:49:34.901Z,22.45
2023-03-26T03:52:01.399Z,17.92
2023-03-26T03:54:27.941Z,21.90
2023-03-26T03:56:54.557Z,23.95
2023-03-26T03:59:21.062Z,18.77
2023-03-26T04:01:47.550Z,23.63
2023-03-26T04:04:14.224Z,16.50
2023-03-26T04:06:40.718Z,19.27
2023-03-26T04:09:07.201Z,17.88
2023-03-26T04:11:33.668Z,16.52
2023-03-26T04:14:00.275Z,21.40
2023-03-26T04:16:26.728Z,22.77
2023-03-26T04:18:53.253Z,16.20
2023-03-26T04:21:19.755Z,14.07
2023-03-26T04:23:46.226Z,15.75
2023-03-26T04:26:16.605Z,12.98
2023-03-26T04:28:47.904Z,16.73
2023-03-26T04:31:18.514Z,12.90
2023-03-26T04:33:47.070Z,15.13
2023-03-26T04:36:15.795Z,18.00
2023-03-26T04:38:44.979Z,20.60
2023-03-26T04:41:13.331Z,21.63
2023-03-26T04:43:39.815Z,23.60
2023-03-26T04:46:06.694Z,19.00
2023-03-26T04:48:33.251Z,23.50
2023-03-26T04:50:59.743Z,20.15
2023-03-26T04:53:26.349Z,17.55
2023-03-26T04:56:14.337Z,16.43
2023-03-26T04:58:40.968Z,13.82
2023-03-26T05:01:10.262Z,24.05
2023-03-26T05:03:37.795Z,21.70
2023-03-26T05:06:04.565Z,23.17
2023-03-26T05:08:31.062Z,18.30
2023-03-26T05:10:57.807Z,16.65
2023-03-26T05:13:24.541Z,19.45
2023-03-26T05:15:51.419Z,20.63
2023-03-26T05:18:17.987Z,18.08
2023-03-26T05:20:44.599Z,24.40
2023-03-26T05:23:11.236Z,18.95
2023-03-26T05:25:37.705Z,14.23
2023-03-26T05:28:04.453Z,14.48
2023-03-26T05:30:30.947Z,17.27
2023-03-26T05:32:57.449Z,24.47
2023-03-26T05:35:24.172Z,25.85
2023-03-26T05:37:50.630Z,22.20
2023-03-26T05:40:17.392Z,17.95
2023-03-26T05:42:44.653Z,19.23
2023-03-26T05:45:13.131Z,20.57
2023-03-26T05:47:40.017Z,19.42
2023-03-26T05:50:07.602Z,13.90
2023-03-26T05:52:34.257Z,24.25
2023-03-26T05:55:01.002Z,21.90
2023-03-26T05:57:30.352Z,20.30
2023-03-26T05:59:56.853Z,15.75
2023-03-26T06:02:23.406Z,24.48
2023-03-26T06:04:50.210Z,20.83
2023-03-26T06:07:17.390Z,21.58
2023-03-26T06:09:44.377Z,16.57
2023-03-26T06:12:11.463Z,19.50
2023-03-26T06:14:38.167Z,19.23
2023-03-26T06:17:04.653Z,15.80
2023-03-26T06:19:31.182Z,24.60
2023-03-26T06:21:57.718Z,19.30
2023-03-26T06:24:24.281Z,19.33
2023-03-26T06:26:50.843Z,21.98
2023-03-26T06:29:17.321Z,19.67
2023-03-26T06:31:43.818Z,18.15
2023-03-26T06:34:10.618Z,18.90
2023-03-26T06:36:37.325Z,16.23
2023-03-26T06:39:07.728Z,16.10
2023-03-26T06:41:36.036Z,20.25
2023-03-26T06:44:02.542Z,22.38
2023-03-26T06:46:29.267Z,12.17
2023-03-26T06:48:55.952Z,18.05
2023-03-26T06:51:22.505Z,15.15
2023-03-26T06:53:48.983Z,15.65
2023-03-26T06:56:15.576Z,13.70
2023-03-26T06:58:42.063Z,15.20
2023-03-26T07:01:08.653Z,18.83
2023-03-26T07:03:35.481Z,19.65
2023-03-26T07:06:02.074Z,19.02
2023-03-26T07:08:28.609Z,15.05
2023-03-26T07:10:55.424Z,10.57
2023-03-26T07:13:22.150Z,14.50
2023-03-26T07:15:49.202Z,16.38
2023-03-26T07:18:15.747Z,17.92
2023-03-26T07:20:44.747Z,14.68
2023-03-26T07:23:12.348Z,15.00
2023-03-26T07:25:39.337Z,17.98
2023-03-26T07:28:10.946Z,19.55
2023-03-26T07:31:04.621Z,14.75
2023-03-26T07:33:34.067Z,12.30
2023-03-26T07:36:16.017Z,18.27
2023-03-26T07:38:59.134Z,14.52
2023-03-26T07:41:38.024Z,16.42
2023-03-26T07:44:12.913Z,11.20
2023-03-26T07:46:39.677Z,17.05
2023-03-26T07:49:06.514Z,15.93
2023-03-26T07:51:33.485Z,13.77
2023-03-26T07:54:00.704Z,17.17
2023-03-26T07:56:38.710Z,17.38
2023-03-26T07:59:36.365Z,13.43
2023-03-26T08:02:21.239Z,15.13
2023-03-26T08:05:24.028Z,17.63
2023-03-26T08:07:59.849Z,17.15
2023-03-26T08:10:30.426Z,14.48
2023-03-26T08:13:25.200Z,17.90
2023-03-26T08:16:01.543Z,18.40
2023-03-26T08:18:40.111Z,14.70
2023-03-26T08:21:22.396Z,17.33
2023-03-26T08:24:12.743Z,19.52
2023-03-26T08:26:59.525Z,18.90
2023-03-26T08:29:38.183Z,19.03
2023-03-26T08:32:12.822Z,18.52
2023-03-26T08:34:39.332Z,22.45
2023-03-26T08:37:05.816Z,12.05
2023-03-26T08:39:32.408Z,16.15
2023-03-26T08:42:26.511Z,15.73
2023-03-26T08:45:11.863Z,16.17
2023-03-26T08:48:03.499Z,14.82
2023-03-26T08:50:39.127Z,16.10
2023-03-26T08:53:23.754Z,19.50
2023-03-26T08:56:06.489Z,21.40
2023-03-26T08:58:45.225Z,17.50
2023-03-26T09:01:30.037Z,18.52
2023-03-26T09:04:21.296Z,15.82
2023-03-26T09:07:06.496Z,20.80
2023-03-26T09:09:57.780Z,15.50
2023-03-26T09:12:54.448Z,16.95
2023-03-26T09:15:35.967Z,16.00
2023-03-26T09:18:35.934Z,14.55
2023-03-26T09:21:46.201Z,15.77
2023-03-26T09:24:38.862Z,20.20
2023-03-26T09:27:15.782Z,15.90
2023-03-26T09:30:16.455Z,14.82
2023-03-26T09:32:48.785Z,13.90
2023-03-26T09:35:55.729Z,16.73
2023-03-26T09:38:34.172Z,17.20
2023-03-26T09:41:06.770Z,15.98
2023-03-26T09:43:55.846Z,19.60
2023-03-26T09:47:05.346Z,18.27
2023-03-26T09:49:48.622Z,15.55
2023-03-26T09:52:18.130Z,15.03
2023-03-26T09:54:56.628Z,19.50
2023-03-26T09:57:31.974Z,17.55
2023-03-26T10:00:19.865Z,16.63
2023-03-26T10:03:04.528Z,18.20
2023-03-26T10:05:57.697Z,21.63
2023-03-26T10:08:55.759Z,18.15
2023-03-26T10:11:37.728Z,19.63
2023-03-26T10:14:20.463Z,17.88
2023-03-26T10:17:10.847Z,25.42
2023-03-26T10:19:49.004Z,23.13
2023-03-26T10:22:33.499Z,19.70
2023-03-26T10:25:14.917Z,23.63
2023-03-26T10:27:50.683Z,13.00
2023-03-26T10:30:35.420Z,18.20
2023-03-26T10:33:38.898Z,17.57
2023-03-26T10:36:05.417Z,20.50
2023-03-26T10:38:34.939Z,16.80
2023-03-26T10:41:24.578Z,23.45
2023-03-26T10:44:08.399Z,20.52
2023-03-26T10:46:53.638Z,18.40
2023-03-26T10:49:46.226Z,28.23
2023-03-26T10:52:15.710Z,19.88
2023-03-26T10:54:56.819Z,20.67
2023-03-26T10:57:45.783Z,15.25
2023-03-26T11:00:24.342Z,22.23
2023-03-26T11:03:05.872Z,19.33
2023-03-26T11:05:59.958Z,16.52
2023-03-26T11:09:03.377Z,19.05
2023-03-26T11:11:42.551Z,16.77
2023-03-26T11:14:31.853Z,20.30
2023-03-26T11:17:14.830Z,18.42
2023-03-26T11:20:05.414Z,16.88
2023-03-26T11:22:37.617Z,16.50
2023-03-26T11:25:34.792Z,17.88
2023-03-26T11:28:13.993Z,14.33
2023-03-26T11:31:04.237Z,15.95
2023-03-26T11:33:46.016Z,16.75
2023-03-26T11:36:37.661Z,15.55
2023-03-26T11:39:09.180Z,16.70
2023-03-26T11:41:35.682Z,14.70
2023-03-26T11:44:13.074Z,13.07
2023-03-26T11:46:43.954Z,17.42
2023-03-26T11:49:17.087Z,17.92
2023-03-26T11:51:46.016Z,18.92
2023-03-26T11:54:13.231Z,16.50
2023-03-26T11:57:05.754Z,16.00
2023-03-26T11:59:56.480Z,14.90
2023-03-26T12:02:37.210Z,12.73
2023-03-26T12:05:15.794Z,15.98
2023-03-26T12:07:45.770Z,11.53
2023-03-26T12:10:40.829Z,11.00
2023-03-26T12:13:51.106Z,15.18
2023-03-26T12:16:21.433Z,15.93
2023-03-26T12:19:02.966Z,12.63
2023-03-26T12:21:29.834Z,14.53
2023-03-26T12:24:04.473Z,10.05
2023-03-26T12:26:39.963Z,11.95
2023-03-26T12:29:10.305Z,15.05
2023-03-26T12:31:48.981Z,9.10
2023-03-26T12:34:18.752Z,11.27
2023-03-26T12:36:52.199Z,12.23
2023-03-26T12:40:08.989Z,13.70
2023-03-26T12:44:49.932Z,12.55
2023-03-26T12:45:22.211Z,9.38
2023-03-26T12:47:58.246Z,13.30
2023-03-26T12:50:58.076Z,10.77
2023-03-26T12:53:50.175Z,13.38
2023-03-26T12:56:31.584Z,14.75
2023-03-26T12:59:09.956Z,11.07
2023-03-26T13:01:41.565Z,11.17
2023-03-26T13:04:51.897Z,13.30
2023-03-26T13:07:36.886Z,8.27
2023-03-26T13:10:30.053Z,9.48
2023-03-26T13:13:27.607Z,14.45
2023-03-26T13:16:00.775Z,12.70
2023-03-26T13:19:12.289Z,9.80
2023-03-26T13:21:51.251Z,9.95
2023-03-26T13:24:40.991Z,13.18
2023-03-26T13:27:30.634Z,9.48
2023-03-26T13:30:02.858Z,5.93
2023-03-26T13:32:44.676Z,11.15
2023-03-26T13:35:23.125Z,10.15
2023-03-26T13:38:01.435Z,10.27
2023-03-26T13:41:00.216Z,8.35
2023-03-26T13:43:26.634Z,9.13
2023-03-26T13:45:53.127Z,10.75
2023-03-26T13:48:25.568Z,9.65
2023-03-26T13:51:12.766Z,10.23
2023-03-26T13:53:55.776Z,8.90
2023-03-26T13:56:29.628Z,9.63
2023-03-26T13:59:08.905Z,6.68
2023-03-26T14:01:41.809Z,8.07
2023-03-26T14:04:18.884Z,7.40
2023-03-26T14:06:52.645Z,6.30
2023-03-26T14:09:25.203Z,9.87
2023-03-26T14:12:02.737Z,10.98
2023-03-26T14:14:57.205Z,11.35
2023-03-26T14:17:48.540Z,9.00
2023-03-26T14:20:17.907Z,11.60
2023-03-26T14:22:44.333Z,8.07
2023-03-26T14:25:28.416Z,8.70
2023-03-26T14:28:06.547Z,6.85
2023-03-26T14:30:54.610Z,7.85
2023-03-26T14:33:52.385Z,9.13
2023-03-26T14:36:30.747Z,11.67
2023-03-26T14:39:39.400Z,7.82
2023-03-26T14:42:19.189Z,6.13
2023-03-26T14:44:51.629Z,8.48
2023-03-26T14:47:23.075Z,6.10
2023-03-26T14:50:14.203Z,5.97
2023-03-26T14:52:52.205Z,7.85
2023-03-26T14:55:54.271Z,6.90
2023-03-26T14:58:51.262Z,7.55
2023-03-26T15:01:21.815Z,6.97
2023-03-26T15:04:09.906Z,8.17
2023-03-26T15:06:57.889Z,8.93
2023-03-26T15:09:33.331Z,8.15
2023-03-26T15:12:24.609Z,8.80
2023-03-26T15:15:25.067Z,6.88
2023-03-26T15:18:09.163Z,10.13
2023-03-26T15:20:53.903Z,8.85
2023-03-26T15:23:49.406Z,7.40
2023-03-26T15:26:37.703Z,6.90
2023-03-26T15:29:44.102Z,8.45
2023-03-26T15:32:37.694Z,5.83
2023-03-26T15:35:30.111Z,6.70
2023-03-26T15:38:14.866Z,8.95
2023-03-26T15:40:55.572Z,6.90
2023-03-26T15:43:22.997Z,5.60
2023-03-26T15:46:24.352Z,7.53
2023-03-26T15:49:02.914Z,7.32
2023-03-26T15:51:29.359Z,5.82
2023-03-26T15:54:14.749Z,7.45
2023-03-26T15:57:16.682Z,8.23
2023-03-26T16:00:02.168Z,7.17
2023-03-26T16:03:06.131Z,5.68
2023-03-26T16:05:47.290Z,6.70
2023-03-26T16:08:41.361Z,5.55
2023-03-26T16:11:09.849Z,6.35
2023-03-26T16:13:38.399Z,7.93
2023-03-26T16:16:05.000Z,7.05
2023-03-26T16:18:33.207Z,5.55
2023-03-26T16:21:36.107Z,6.00
2023-03-26T16:24:02.723Z,7.63
2023-03-26T16:26:40.037Z,6.00
2023-03-26T16:29:20.241Z,8.55
2023-03-26T16:32:31.557Z,8.80
2023-03-26T16:35:01.299Z,5.25
2023-03-26T16:37:34.082Z,5.95
2023-03-26T16:40:18.808Z,6.47
2023-03-26T16:43:28.774Z,6.93
2023-03-26T16:46:13.213Z,6.88
2023-03-26T16:48:51.010Z,5.63
2023-03-26T16:51:35.541Z,8.93
2023-03-26T16:54:08.084Z,6.23
2023-03-26T16:56:56.924Z,5.28
2023-03-26T16:59:37.731Z,6.85
2023-03-26T17:02:20.062Z,6.05
2023-03-26T17:04:51.521Z,6.97
2023-03-26T17:07:41.084Z,8.30
2023-03-26T17:10:32.773Z,4.60
2023-03-26T17:13:08.881Z,7.22
2023-03-26T17:16:01.218Z,7.57
2023-03-26T17:18:33.742Z,8.50
2023-03-26T17:21:12.014Z,8.40
2023-03-26T17:24:05.528Z,8.38
2023-03-26T17:26:43.957Z,6.68
2023-03-26T17:29:19.535Z,8.73
2023-03-26T17:32:00.300Z,7.00
2023-03-26T17:35:02.085Z,7.40
2023-03-26T17:37:35.230Z,8.48
2023-03-26T17:40:01.664Z,8.52
2023-03-26T17:42:30.879Z,7.38
2023-03-26T17:45:16.786Z,6.22
2023-03-26T17:48:01.990Z,6.50
2023-03-26T17:50:50.252Z,6.97
2023-03-26T17:53:24.941Z,6.28
2023-03-26T17:55:52.315Z,6.80
2023-03-26T17:58:35.978Z,6.35
2023-03-26T18:01:05.503Z,4.47
2023-03-26T18:03:50.735Z,4.57
2023-03-26T18:06:34.959Z,5.18
2023-03-26T18:09:09.733Z,4.78
2023-03-26T18:11:49.665Z,4.15
2023-03-26T18:14:37.580Z,6.03
2023-03-26T18:17:05.079Z,5.50
2023-03-26T18:19:53.262Z,5.78
2023-03-26T18:22:24.304Z,6.72
2023-03-26T18:24:51.596Z,5.63
2023-03-26T18:27:22.399Z,5.07
2023-03-26T18:29:57.645Z,4.45
2023-03-26T18:32:31.710Z,5.35
2023-03-26T18:35:17.127Z,5.95
2023-03-26T18:37:44.232Z,5.00
2023-03-26T18:40:13.934Z,5.13
2023-03-26T18:42:43.577Z,3.72
2023-03-26T18:45:24.824Z,4.75
2023-03-26T18:47:57.873Z,4.18
2023-03-26T18:50:36.534Z,3.22
2023-03-26T18:53:06.630Z,4.10
2023-03-26T18:55:34.988Z,3.58
2023-03-26T18:58:20.764Z,3.40
2023-03-26T19:00:48.007Z,3.00
2023-03-26T19:03:18.707Z,5.18
2023-03-26T19:05:45.553Z,4.73
2023-03-26T19:08:12.337Z,2.90
2023-03-26T19:10:39.031Z,3.40
2023-03-26T19:13:05.541Z,3.05
2023-03-26T19:15:34.705Z,3.15
2023-03-26T19:18:04.979Z,3.07
2023-03-26T19:20:45.511Z,2.00
2023-03-26T19:23:21.172Z,2.67
2023-03-26T19:25:54.253Z,2.50
2023-03-26T19:28:25.103Z,2.40
2023-03-26T19:31:07.065Z,2.10
2023-03-26T19:33:36.883Z,1.80
2023-03-26T19:36:23.711Z,2.08
2023-03-26T19:38:52.471Z,1.90
2023-03-26T19:41:31.014Z,1.70
2023-03-26T19:44:03.019Z,1.87
2023-03-26T19:46:34.470Z,1.48
2023-03-26T19:49:33.418Z,2.10
2023-03-26T19:52:25.240Z,1.50
2023-03-26T19:55:20.591Z,2.08
2023-03-26T19:57:47.362Z,2.07
2023-03-26T20:00:14.288Z,1.80
2023-03-26T20:02:41.933Z,1.70
2023-03-26T20:05:34.671Z,1.42
2023-03-26T20:08:09.953Z,1.50
2023-03-26T20:10:37.219Z,1.40
2023-03-26T20:13:03.734Z,1.80
2023-03-26T20:15:34.316Z,2.00
2023-03-26T20:18:00.982Z,2.35
2023-03-26T20:20:27.620Z,3.53
2023-03-26T20:22:54.646Z,3.90
2023-03-26T20:25:28.703Z,3.95
2023-03-26T20:27:57.313Z,4.55
2023-03-26T20:30:36.793Z,4.47
2023-03-26T20:33:13.402Z,4.10
2023-03-26T20:35:40.613Z,4.10
2023-03-26T20:38:07.156Z,3.45
2023-03-26T20:40:33.640Z,4.13
2023-03-26T20:43:00.160Z,3.35
2023-03-26T20:45:26.718Z,3.80
2023-03-26T20:47:53.276Z,4.00
2023-03-26T20:50:22.054Z,5.45
2023-03-26T20:52:51.188Z,5.80
2023-03-26T20:55:20.100Z,5.78
2023-03-26T20:57:46.796Z,5.72
2023-03-26T21:00:15.788Z,5.60
2023-03-26T21:02:43.318Z,5.50
2023-03-26T21:05:13.591Z,6.20
2023-03-26T21:07:44.489Z,6.13
2023-03-26T21:10:13.052Z,7.13
2023-03-26T21:13:03.696Z,8.50
2023-03-26T21:15:30.624Z,7.13
2023-03-26T21:17:57.492Z,5.72
2023-03-26T21:20:25.747Z,5.47
2023-03-26T21:23:09.613Z,6.53
2023-03-26T21:25:48.694Z,5.03
2023-03-26T21:28:42.713Z,4.63
2023-03-26T21:31:21.070Z,4.43
2023-03-26T21:33:49.216Z,3.25
2023-03-26T21:36:18.132Z,4.72
2023-03-26T21:38:45.528Z,4.50
2023-03-26T21:41:24.234Z,4.78
2023-03-26T21:43:51.592Z,5.82
2023-03-26T21:46:18.670Z,6.57
2023-03-26T21:48:45.502Z,6.85
2023-03-26T21:51:12.387Z,7.53
2023-03-26T21:53:39.123Z,5.88
2023-03-26T21:56:32.914Z,4.55
2023-03-26T21:59:17.157Z,4.85
2023-03-26T22:02:19.648Z,5.05
2023-03-26T22:04:56.307Z,4.50
2023-03-26T22:07:27.693Z,4.68
2023-03-26T22:09:54.483Z,4.47
2023-03-26T22:12:21.028Z,4.47
2023-03-26T22:14:47.741Z,5.18
2023-03-26T22:17:14.593Z,4.63
2023-03-26T22:19:42.616Z,5.05
2023-03-26T22:22:09.290Z,5.72
2023-03-26T22:24:36.000Z,5.78
2023-03-26T22:27:02.684Z,6.60
2023-03-26T22:29:29.283Z,6.73
2023-03-26T22:31:55.814Z,6.47
2023-03-26T22:34:22.304Z,6.28
2023-03-26T22:36:48.854Z,6.55
2023-03-26T22:39:15.343Z,6.50
2023-03-26T22:41:42.545Z,6.63
2023-03-26T22:44:19.813Z,6.28
2023-03-26T22:46:47.146Z,6.80
2023-03-26T22:49:13.722Z,7.93
2023-03-26T22:51:40.212Z,6.78
2023-03-26T22:54:06.739Z,6.10
2023-03-26T22:56:33.326Z,6.20
2023-03-26T22:58:59.889Z,6.88
2023-03-26T23:01:26.381Z,6.30
2023-03-26T23:03:54.556Z,8.75
2023-03-26T23:06:21.084Z,6.80
2023-03-26T23:08:47.575Z,5.00
2023-03-26T23:11:16.589Z,5.72
2023-03-26T23:13:45.556Z,4.93
2023-03-26T23:16:13.422Z,4.95
2023-03-26T23:18:40.395Z,4.07
2023-03-26T23:21:12.604Z,3.85
2023-03-26T23:23:39.083Z,4.50
2023-03-26T23:26:06.084Z,3.65
2023-03-26T23:28:34.011Z,4.03
2023-03-26T23:31:04.863Z,3.70
2023-03-26T23:33:34.229Z,4.07
2023-03-26T23:36:03.816Z,3.15
2023-03-26T23:38:43.431Z,4.13
2023-03-26T23:41:11.479Z,3.85
2023-03-26T23:43:38.005Z,3.70
2023-03-26T23:46:04.699Z,3.08
2023-03-26T23:48:31.183Z,3.28
2023-03-26T23:51:03.174Z,3.03
2023-03-26T23:53:31.892Z,4.07
2023-03-26T23:55:58.493Z,2.67
2023-03-26T23:58:27.468Z,3.33
